createdAt,value
2018-07-17T00:00:30.038Z,74.41
2018-07-17T00:01:30.124Z,74.41
2018-07-17T00:02:30.101Z,74.89
2018-07-17T00:03:30.128Z,75.27
2018-07-17T00:04:30.165Z,75.76
2018-07-17T00:05:30.185Z,75.85
2018-07-17T00:06:30.214Z,75.95
2018-07-17T00:07:30.248Z,76.53
2018-07-17T00:08:30.276Z,75.95
2018-07-17T00:09:30.363Z,76.15
2018-07-17T00:10:30.354Z,76.34
2018-07-17T00:11:30.379Z,75.85
2018-07-17T00:12:30.394Z,76.05
2018-07-17T00:13:30.435Z,76.24
2018-07-17T00:14:30.456Z,76.15
2018-07-17T00:15:30.491Z,75.37
2018-07-17T00:16:30.530Z,75.18
2018-07-17T00:17:30.553Z,76.15
2018-07-17T00:18:30.571Z,75.18
2018-07-17T00:19:30.622Z,74.69
2018-07-17T00:20:30.635Z,76.05
2018-07-17T00:21:30.666Z,76.24
2018-07-17T00:22:30.691Z,75.57
2018-07-17T00:23:30.726Z,75.37
2018-07-17T00:24:30.753Z,75.85
2018-07-17T00:25:30.788Z,76.05
2018-07-17T00:26:30.821Z,76.72
2018-07-17T00:27:30.841Z,75.57
2018-07-17T00:28:30.874Z,76.15
2018-07-17T00:29:30.900Z,75.27
2018-07-17T00:30:30.929Z,75.85
2018-07-17T00:31:30.959Z,75.57
2018-07-17T00:32:30.989Z,75.67
2018-07-17T00:33:31.028Z,75.27
2018-07-17T00:34:31.062Z,75.09
2018-07-17T00:35:31.093Z,74.60
2018-07-17T00:36:31.105Z,75.24
2018-07-17T00:37:31.160Z,75.18
2018-07-17T00:38:31.166Z,74.31
2018-07-17T00:39:31.192Z,75.37
2018-07-17T00:40:31.225Z,75.18
2018-07-17T00:41:31.262Z,76.05
2018-07-17T00:42:31.283Z,75.67
2018-07-17T00:43:31.311Z,75.14
2018-07-17T00:44:31.343Z,74.66
2018-07-17T00:45:31.373Z,75.09
2018-07-17T00:46:31.403Z,75.18
2018-07-17T00:47:31.438Z,75.18
2018-07-17T00:48:31.471Z,74.89
2018-07-17T00:49:31.495Z,75.18
2018-07-17T00:50:31.597Z,75.47
2018-07-17T00:51:31.556Z,75.57
2018-07-17T00:52:31.599Z,75.76
2018-07-17T00:53:31.613Z,75.18
2018-07-17T00:54:31.650Z,74.57
2018-07-17T00:55:31.673Z,75.37
2018-07-17T00:56:31.704Z,75.53
2018-07-17T00:57:31.729Z,76.10
2018-07-17T00:58:31.760Z,75.62
2018-07-17T00:59:31.788Z,75.24
2018-07-17T01:00:31.822Z,75.62
2018-07-17T01:01:31.850Z,74.69
2018-07-17T01:02:31.887Z,75.09
2018-07-17T01:03:31.909Z,75.85
2018-07-17T01:04:31.946Z,76.53
2018-07-17T01:05:31.971Z,75.85
2018-07-17T01:06:32.001Z,75.85
2018-07-17T01:07:32.036Z,75.47
2018-07-17T01:08:32.055Z,74.31
2018-07-17T01:09:32.091Z,75.57
2018-07-17T01:10:32.175Z,75.76
2018-07-17T01:11:32.146Z,76.34
2018-07-17T01:12:32.202Z,76.82
2018-07-17T01:13:32.206Z,76.15
2018-07-17T01:14:32.234Z,75.85
2018-07-17T01:15:32.275Z,75.72
2018-07-17T01:16:32.299Z,75.18
2018-07-17T01:17:32.326Z,75.76
2018-07-17T01:18:32.355Z,75.76
2018-07-17T01:19:32.384Z,75.67
2018-07-17T01:20:32.419Z,75.76
2018-07-17T01:21:32.442Z,75.85
2018-07-17T01:22:32.473Z,74.79
2018-07-17T01:23:32.504Z,74.69
2018-07-17T01:24:32.539Z,75.24
2018-07-17T01:25:32.560Z,75.72
2018-07-17T01:26:32.593Z,74.47
2018-07-17T01:27:32.641Z,75.34
2018-07-17T01:28:32.651Z,74.69
2018-07-17T01:29:32.682Z,74.47
2018-07-17T01:30:32.718Z,74.47
2018-07-17T01:31:32.736Z,74.85
2018-07-17T01:32:32.776Z,74.37
2018-07-17T01:33:32.812Z,74.57
2018-07-17T01:34:32.830Z,74.66
2018-07-17T01:35:32.854Z,74.66
2018-07-17T01:36:32.887Z,75.05
2018-07-17T01:37:32.921Z,75.05
2018-07-17T01:38:32.978Z,75.14
2018-07-17T01:39:32.984Z,75.34
2018-07-17T01:40:33.006Z,74.66
2018-07-17T01:41:33.040Z,74.66
2018-07-17T01:42:33.062Z,74.57
2018-07-17T01:43:33.094Z,74.57
2018-07-17T01:44:33.125Z,73.79
2018-07-17T01:45:33.154Z,73.41
2018-07-17T01:46:33.180Z,73.79
2018-07-17T01:47:33.216Z,74.47
2018-07-17T01:48:33.249Z,74.27
2018-07-17T01:49:33.277Z,74.66
2018-07-17T01:50:33.310Z,74.47
2018-07-17T01:51:33.327Z,74.85
2018-07-17T01:52:33.365Z,74.57
2018-07-17T01:53:33.392Z,75.62
2018-07-17T01:54:33.416Z,75.34
2018-07-17T01:55:33.446Z,74.66
2018-07-17T01:56:33.474Z,74.85
2018-07-17T01:57:33.503Z,74.57
2018-07-17T01:58:33.532Z,74.47
2018-07-17T01:59:33.578Z,73.79
2018-07-17T02:00:33.606Z,74.57
2018-07-17T02:01:33.651Z,74.85
2018-07-17T02:02:33.657Z,74.76
2018-07-17T02:03:33.686Z,75.05
2018-07-17T02:04:33.715Z,75.05
2018-07-17T02:05:33.753Z,74.47
2018-07-17T02:06:33.777Z,74.47
2018-07-17T02:07:33.805Z,74.76
2018-07-17T02:08:33.833Z,74.76
2018-07-17T02:09:33.873Z,73.99
2018-07-17T02:10:33.896Z,74.66
2018-07-17T02:11:33.922Z,74.27
2018-07-17T02:12:33.996Z,74.95
2018-07-17T02:13:33.984Z,74.85
2018-07-17T02:14:34.013Z,73.89
2018-07-17T02:15:34.040Z,74.66
2018-07-17T02:16:34.068Z,74.62
2018-07-17T02:17:34.098Z,74.72
2018-07-17T02:18:34.130Z,74.76
2018-07-17T02:19:34.169Z,72.92
2018-07-17T02:20:34.197Z,74.66
2018-07-17T02:21:34.227Z,74.85
2018-07-17T02:22:34.257Z,74.27
2018-07-17T02:23:34.277Z,74.66
2018-07-17T02:24:34.307Z,74.62
2018-07-17T02:25:34.333Z,74.62
2018-07-17T02:26:34.368Z,73.66
2018-07-17T02:27:34.394Z,74.33
2018-07-17T02:28:34.435Z,74.14
2018-07-17T02:29:34.450Z,74.62
2018-07-17T02:30:34.487Z,73.37
2018-07-17T02:31:34.513Z,75.01
2018-07-17T02:32:34.544Z,74.43
2018-07-17T02:33:34.571Z,74.62
2018-07-17T02:34:34.601Z,74.62
2018-07-17T02:35:34.634Z,74.14
2018-07-17T02:36:34.665Z,75.01
2018-07-17T02:37:34.686Z,75.01
2018-07-17T02:38:34.717Z,74.91
2018-07-17T02:39:34.747Z,75.01
2018-07-17T02:40:34.778Z,74.43
2018-07-17T02:41:34.807Z,73.75
2018-07-17T02:42:34.837Z,73.95
2018-07-17T02:43:34.872Z,74.52
2018-07-17T02:44:34.891Z,74.24
2018-07-17T02:45:34.927Z,74.24
2018-07-17T02:46:34.952Z,74.43
2018-07-17T02:47:34.993Z,74.24
2018-07-17T02:48:35.010Z,74.24
2018-07-17T02:49:35.042Z,74.24
2018-07-17T02:50:35.088Z,74.91
2018-07-17T02:51:35.108Z,74.33
2018-07-17T02:52:35.129Z,74.43
2018-07-17T02:53:35.156Z,71.92
2018-07-17T02:54:35.196Z,73.08
2018-07-17T02:55:35.217Z,73.95
2018-07-17T02:56:35.253Z,73.37
2018-07-17T02:57:35.278Z,73.47
2018-07-17T02:58:35.314Z,73.66
2018-07-17T02:59:35.343Z,72.41
2018-07-17T03:00:35.363Z,74.33
2018-07-17T03:01:35.399Z,73.75
2018-07-17T03:02:35.423Z,73.85
2018-07-17T03:03:35.477Z,72.41
2018-07-17T03:04:35.483Z,73.18
2018-07-17T03:05:35.517Z,73.18
2018-07-17T03:06:35.553Z,73.57
2018-07-17T03:07:35.571Z,72.99
2018-07-17T03:08:35.607Z,74.43
2018-07-17T03:09:35.629Z,74.05
2018-07-17T03:10:35.764Z,74.05
2018-07-17T03:11:35.693Z,73.75
2018-07-17T03:12:36.507Z,73.85
2018-07-17T03:13:35.748Z,74.43
2018-07-17T03:14:35.799Z,73.66
2018-07-17T03:15:35.805Z,73.47
2018-07-17T03:16:35.842Z,73.57
2018-07-17T03:17:35.870Z,73.85
2018-07-17T03:18:35.894Z,73.27
2018-07-17T03:19:35.925Z,73.75
2018-07-17T03:20:35.959Z,74.43
2018-07-17T03:21:36.017Z,73.37
2018-07-17T03:22:36.017Z,73.37
2018-07-17T03:23:36.042Z,74.14
2018-07-17T03:24:36.145Z,73.18
2018-07-17T03:25:36.104Z,74.24
2018-07-17T03:26:36.130Z,73.37
2018-07-17T03:27:36.161Z,74.43
2018-07-17T03:28:36.191Z,74.33
2018-07-17T03:29:36.231Z,74.14
2018-07-17T03:30:36.293Z,73.57
2018-07-17T03:31:36.280Z,74.05
2018-07-17T03:32:36.310Z,73.27
2018-07-17T03:33:36.334Z,73.75
2018-07-17T03:34:36.365Z,73.47
2018-07-17T03:35:36.395Z,72.89
2018-07-17T03:36:36.483Z,72.69
2018-07-17T03:37:36.465Z,72.99
2018-07-17T03:38:36.482Z,72.69
2018-07-17T03:39:36.524Z,72.89
2018-07-17T03:40:36.543Z,72.79
2018-07-17T03:41:36.574Z,73.66
2018-07-17T03:42:36.603Z,72.99
2018-07-17T03:43:36.630Z,73.18
2018-07-17T03:44:36.660Z,72.99
2018-07-17T03:45:36.686Z,72.02
2018-07-17T03:46:36.751Z,73.18
2018-07-17T03:47:36.744Z,72.99
2018-07-17T03:48:36.773Z,74.33
2018-07-17T03:49:36.808Z,72.89
2018-07-17T03:50:36.833Z,72.99
2018-07-17T03:51:36.868Z,73.18
2018-07-17T03:52:36.892Z,73.08
2018-07-17T03:53:36.922Z,72.99
2018-07-17T03:54:36.948Z,73.47
2018-07-17T03:55:36.977Z,73.85
2018-07-17T03:56:37.010Z,73.37
2018-07-17T03:57:37.048Z,73.37
2018-07-17T03:58:37.071Z,73.85
2018-07-17T03:59:37.096Z,73.75
2018-07-17T04:00:37.131Z,74.14
2018-07-17T04:01:37.166Z,73.85
2018-07-17T04:02:37.200Z,74.62
2018-07-17T04:03:37.222Z,73.95
2018-07-17T04:04:37.255Z,73.47
2018-07-17T04:05:37.283Z,74.05
2018-07-17T04:06:37.312Z,73.75
2018-07-17T04:07:37.335Z,73.75
2018-07-17T04:08:37.381Z,74.24
2018-07-17T04:09:37.391Z,74.05
2018-07-17T04:10:37.420Z,73.75
2018-07-17T04:11:37.472Z,74.43
2018-07-17T04:12:37.504Z,73.85
2018-07-17T04:13:37.516Z,73.95
2018-07-17T04:14:37.553Z,74.62
2018-07-17T04:15:37.565Z,74.33
2018-07-17T04:16:37.611Z,74.14
2018-07-17T04:17:37.640Z,73.85
2018-07-17T04:18:37.654Z,73.47
2018-07-17T04:19:37.688Z,74.33
2018-07-17T04:20:37.724Z,73.95
2018-07-17T04:21:37.772Z,73.85
2018-07-17T04:22:37.788Z,73.57
2018-07-17T04:23:37.823Z,74.14
2018-07-17T04:24:37.833Z,73.57
2018-07-17T04:25:37.864Z,73.27
2018-07-17T04:26:37.894Z,73.95
2018-07-17T04:27:37.919Z,74.05
2018-07-17T04:28:37.957Z,73.57
2018-07-17T04:29:37.995Z,73.75
2018-07-17T04:30:38.008Z,73.75
2018-07-17T04:31:38.060Z,74.33
2018-07-17T04:32:38.072Z,73.57
2018-07-17T04:33:38.095Z,73.08
2018-07-17T04:34:38.129Z,73.60
2018-07-17T04:35:38.173Z,74.24
2018-07-17T04:36:38.192Z,73.18
2018-07-17T04:37:38.209Z,74.08
2018-07-17T04:38:38.248Z,73.57
2018-07-17T04:39:38.272Z,73.37
2018-07-17T04:40:38.304Z,73.37
2018-07-17T04:41:38.328Z,73.85
2018-07-17T04:42:38.378Z,73.79
2018-07-17T04:43:38.390Z,73.11
2018-07-17T04:44:38.422Z,73.41
2018-07-17T04:45:38.450Z,73.31
2018-07-17T04:46:38.481Z,71.86
2018-07-17T04:47:38.508Z,71.38
2018-07-17T04:48:38.537Z,71.70
2018-07-17T04:49:38.567Z,72.96
2018-07-17T04:50:38.598Z,72.96
2018-07-17T04:51:38.633Z,72.73
2018-07-17T04:52:38.652Z,70.84
2018-07-17T04:53:38.687Z,71.03
2018-07-17T04:54:38.723Z,73.06
2018-07-17T04:55:38.742Z,72.00
2018-07-17T04:56:38.776Z,72.48
2018-07-17T04:57:38.801Z,72.96
2018-07-17T04:58:38.830Z,71.80
2018-07-17T04:59:38.865Z,73.25
2018-07-17T05:00:38.900Z,71.51
2018-07-17T05:01:38.990Z,71.80
2018-07-17T05:02:38.948Z,73.06
2018-07-17T05:03:38.989Z,71.90
2018-07-17T05:04:39.004Z,72.09
2018-07-17T05:05:39.043Z,71.90
2018-07-17T05:06:39.073Z,71.09
2018-07-17T05:07:39.105Z,70.74
2018-07-17T05:08:39.132Z,72.19
2018-07-17T05:09:39.155Z,72.86
2018-07-17T05:10:39.201Z,72.09
2018-07-17T05:11:39.212Z,72.77
2018-07-17T05:12:39.245Z,72.77
2018-07-17T05:13:39.269Z,73.15
2018-07-17T05:14:39.307Z,72.48
2018-07-17T05:15:39.331Z,72.00
2018-07-17T05:16:39.360Z,72.58
2018-07-17T05:17:39.388Z,72.00
2018-07-17T05:18:39.419Z,72.09
2018-07-17T05:19:39.466Z,72.00
2018-07-17T05:20:39.477Z,70.84
2018-07-17T05:21:39.521Z,69.20
2018-07-17T05:22:39.537Z,71.22
2018-07-17T05:23:39.583Z,71.32
2018-07-17T05:24:39.596Z,71.51
2018-07-17T05:25:39.623Z,71.42
2018-07-17T05:26:39.671Z,71.22
2018-07-17T05:27:39.681Z,70.74
2018-07-17T05:28:39.725Z,71.42
2018-07-17T05:29:39.760Z,71.42
2018-07-17T05:30:39.773Z,71.22
2018-07-17T05:31:39.808Z,71.32
2018-07-17T05:32:39.859Z,71.22
2018-07-17T05:33:39.862Z,71.22
2018-07-17T05:34:39.891Z,71.22
2018-07-17T05:35:39.930Z,71.32
2018-07-17T05:36:39.950Z,71.22
2018-07-17T05:37:39.983Z,70.84
2018-07-17T05:38:40.017Z,70.45
2018-07-17T05:39:40.037Z,70.94
2018-07-17T05:40:40.072Z,71.70
2018-07-17T05:41:40.094Z,70.74
2018-07-17T05:42:40.135Z,71.03
2018-07-17T05:43:40.207Z,71.22
2018-07-17T05:44:40.189Z,71.22
2018-07-17T05:45:40.212Z,70.84
2018-07-17T05:46:40.250Z,70.36
2018-07-17T05:47:40.272Z,71.03
2018-07-17T05:48:40.302Z,71.51
2018-07-17T05:49:40.330Z,70.94
2018-07-17T05:50:40.366Z,70.84
2018-07-17T05:51:40.403Z,70.74
2018-07-17T05:52:40.435Z,70.84
2018-07-17T05:53:40.450Z,70.54
2018-07-17T05:54:40.489Z,70.94
2018-07-17T05:55:40.532Z,70.84
2018-07-17T05:56:40.538Z,70.94
2018-07-17T05:57:40.573Z,71.22
2018-07-17T05:58:40.596Z,70.97
2018-07-17T05:59:40.629Z,71.03
2018-07-17T06:00:40.661Z,70.84
2018-07-17T06:01:40.693Z,71.03
2018-07-17T06:02:40.716Z,71.22
2018-07-17T06:03:40.748Z,71.32
2018-07-17T06:04:40.775Z,70.78
2018-07-17T06:05:40.813Z,71.36
2018-07-17T06:06:40.834Z,71.16
2018-07-17T06:07:40.861Z,70.97
2018-07-17T06:08:40.898Z,70.39
2018-07-17T06:09:40.933Z,70.48
2018-07-17T06:10:40.951Z,69.13
2018-07-17T06:11:40.979Z,67.78
2018-07-17T06:12:41.055Z,69.71
2018-07-17T06:13:41.049Z,69.81
2018-07-17T06:14:41.071Z,70.00
2018-07-17T06:15:41.097Z,70.48
2018-07-17T06:16:41.132Z,69.52
2018-07-17T06:17:41.171Z,69.04
2018-07-17T06:18:41.187Z,69.90
2018-07-17T06:19:41.220Z,70.10
2018-07-17T06:20:41.248Z,70.10
2018-07-17T06:21:41.276Z,70.58
2018-07-17T06:22:41.309Z,70.39
2018-07-17T06:23:41.343Z,69.81
2018-07-17T06:24:41.375Z,70.10
2018-07-17T06:25:41.392Z,69.90
2018-07-17T06:26:41.429Z,69.90
2018-07-17T06:27:41.464Z,70.39
2018-07-17T06:28:41.487Z,70.39
2018-07-17T06:29:41.519Z,69.90
2018-07-17T06:30:41.563Z,70.39
2018-07-17T06:31:41.576Z,69.71
2018-07-17T06:32:41.615Z,70.52
2018-07-17T06:33:41.646Z,70.32
2018-07-17T06:34:41.699Z,69.74
2018-07-17T06:35:41.705Z,69.84
2018-07-17T06:36:41.721Z,70.90
2018-07-17T06:37:41.751Z,70.62
2018-07-17T06:38:41.815Z,69.36
2018-07-17T06:39:41.811Z,69.84
2018-07-17T06:40:41.843Z,70.72
2018-07-17T06:41:41.881Z,70.04
2018-07-17T06:42:41.900Z,70.42
2018-07-17T06:43:41.935Z,69.94
2018-07-17T06:44:41.999Z,70.65
2018-07-17T06:45:42.016Z,69.20
2018-07-17T06:46:42.020Z,70.56
2018-07-17T06:47:42.051Z,68.82
2018-07-17T06:48:42.078Z,68.04
2018-07-17T06:49:42.118Z,69.10
2018-07-17T06:50:42.153Z,69.98
2018-07-17T06:51:42.166Z,70.07
2018-07-17T06:52:42.206Z,69.98
2018-07-17T06:53:42.240Z,70.07
2018-07-17T06:54:42.259Z,69.92
2018-07-17T06:55:42.295Z,68.27
2018-07-17T06:56:42.316Z,68.27
2018-07-17T06:57:42.349Z,67.40
2018-07-17T06:58:42.383Z,67.79
2018-07-17T06:59:42.407Z,69.04
2018-07-17T07:00:42.437Z,68.56
2018-07-17T07:01:42.471Z,68.66
2018-07-17T07:02:42.502Z,68.11
2018-07-17T07:03:42.545Z,68.69
2018-07-17T07:04:42.557Z,67.11
2018-07-17T07:05:42.596Z,67.24
2018-07-17T07:06:42.616Z,68.59
2018-07-17T07:07:42.650Z,68.40
2018-07-17T07:08:42.669Z,65.88
2018-07-17T07:09:42.706Z,65.66
2018-07-17T07:10:42.738Z,65.85
2018-07-17T07:11:42.768Z,65.69
2018-07-17T07:12:42.797Z,67.59
2018-07-17T07:13:42.821Z,67.40
2018-07-17T07:14:42.864Z,65.66
2018-07-17T07:15:42.887Z,66.27
2018-07-17T07:16:42.917Z,64.72
2018-07-17T07:17:42.940Z,65.11
2018-07-17T07:18:43.024Z,66.17
2018-07-17T07:19:42.998Z,66.56
2018-07-17T07:20:43.031Z,65.40
2018-07-17T07:21:43.061Z,65.40
2018-07-17T07:22:43.095Z,65.30
2018-07-17T07:23:43.123Z,65.01
2018-07-17T07:24:43.151Z,65.01
2018-07-17T07:25:43.183Z,65.50
2018-07-17T07:26:43.209Z,63.95
2018-07-17T07:27:43.260Z,63.76
2018-07-17T07:28:43.269Z,64.04
2018-07-17T07:29:43.299Z,64.24
2018-07-17T07:30:43.333Z,64.92
2018-07-17T07:31:43.367Z,63.66
2018-07-17T07:32:43.515Z,64.24
2018-07-17T07:33:43.423Z,64.53
2018-07-17T07:34:43.455Z,64.24
2018-07-17T07:35:43.479Z,64.14
2018-07-17T07:36:43.512Z,63.95
2018-07-17T07:37:43.545Z,64.53
2018-07-17T07:38:43.569Z,63.37
2018-07-17T07:39:43.599Z,63.56
2018-07-17T07:40:43.652Z,63.37
2018-07-17T07:41:43.676Z,63.76
2018-07-17T07:42:43.693Z,62.79
2018-07-17T07:43:43.827Z,61.33
2018-07-17T07:44:43.747Z,61.24
2018-07-17T07:45:43.786Z,61.43
2018-07-17T07:46:43.813Z,60.37
2018-07-17T07:47:43.840Z,60.95
2018-07-17T07:48:43.872Z,61.63
2018-07-17T07:49:43.900Z,60.85
2018-07-17T07:50:43.948Z,61.18
2018-07-17T07:51:43.957Z,59.11
2018-07-17T07:52:44.610Z,60.30
2018-07-17T07:53:44.019Z,60.40
2018-07-17T07:54:44.055Z,60.30
2018-07-17T07:55:44.087Z,60.40
2018-07-17T07:56:44.111Z,60.98
2018-07-17T07:57:44.139Z,60.21
2018-07-17T07:58:44.178Z,57.50
2018-07-17T07:59:44.210Z,57.59
2018-07-17T08:00:44.228Z,57.11
2018-07-17T08:01:44.262Z,56.52
2018-07-17T08:02:44.287Z,57.11
2018-07-17T08:03:44.457Z,57.81
2018-07-17T08:04:44.350Z,56.43
2018-07-17T08:05:44.378Z,57.53
2018-07-17T08:06:44.408Z,56.34
2018-07-17T08:07:44.442Z,56.34
2018-07-17T08:08:44.471Z,56.72
2018-07-17T08:09:44.496Z,58.37
2018-07-17T08:10:44.542Z,58.95
2018-07-17T08:11:44.577Z,59.53
2018-07-17T08:12:44.598Z,59.36
2018-07-17T08:13:44.629Z,58.07
2018-07-17T08:14:44.648Z,58.56
2018-07-17T08:15:44.684Z,58.47
2018-07-17T08:16:44.720Z,58.47
2018-07-17T08:17:44.744Z,56.72
2018-07-17T08:18:44.772Z,58.07
2018-07-17T08:19:44.803Z,57.30
2018-07-17T08:20:44.828Z,56.24
2018-07-17T08:21:44.864Z,55.88
2018-07-17T08:22:44.888Z,56.46
2018-07-17T08:23:44.921Z,56.07
2018-07-17T08:24:44.950Z,53.85
2018-07-17T08:25:44.981Z,55.56
2018-07-17T08:26:45.018Z,55.98
2018-07-17T08:27:45.040Z,55.88
2018-07-17T08:28:45.080Z,56.07
2018-07-17T08:29:45.172Z,56.36
2018-07-17T08:30:45.131Z,54.91
2018-07-17T08:31:45.161Z,53.85
2018-07-17T08:32:45.190Z,54.52
2018-07-17T08:33:45.220Z,55.20
2018-07-17T08:34:45.249Z,54.13
2018-07-17T08:35:45.317Z,54.03
2018-07-17T08:36:45.315Z,55.49
2018-07-17T08:37:45.355Z,56.77
2018-07-17T08:38:45.370Z,56.20
2018-07-17T08:39:45.398Z,56.39
2018-07-17T08:40:45.429Z,56.20
2018-07-17T08:41:45.461Z,55.52
2018-07-17T08:42:45.489Z,54.84
2018-07-17T08:43:45.626Z,55.04
2018-07-17T08:44:45.556Z,54.94
2018-07-17T08:45:45.583Z,54.55
2018-07-17T08:46:45.611Z,54.77
2018-07-17T08:47:45.641Z,54.84
2018-07-17T08:48:45.675Z,54.19
2018-07-17T08:49:45.701Z,54.58
2018-07-17T08:50:45.732Z,53.51
2018-07-17T08:51:45.765Z,53.89
2018-07-17T08:52:45.969Z,53.99
2018-07-17T08:53:45.832Z,53.19
2018-07-17T08:54:45.915Z,53.61
2018-07-17T08:55:45.885Z,53.61
2018-07-17T08:56:45.920Z,53.12
2018-07-17T08:57:45.951Z,54.48
2018-07-17T08:58:45.976Z,54.67
2018-07-17T08:59:46.015Z,54.09
2018-07-17T09:00:46.037Z,53.89
2018-07-17T09:01:46.063Z,54.19
2018-07-17T09:02:46.092Z,54.96
2018-07-17T09:03:46.137Z,55.47
2018-07-17T09:04:46.153Z,54.70
2018-07-17T09:05:46.214Z,52.95
2018-07-17T09:06:46.225Z,52.18
2018-07-17T09:07:46.244Z,53.83
2018-07-17T09:08:46.291Z,54.24
2018-07-17T09:09:46.311Z,54.66
2018-07-17T09:10:46.338Z,54.17
2018-07-17T09:11:46.368Z,52.40
2018-07-17T09:12:46.397Z,52.11
2018-07-17T09:13:46.425Z,52.50
2018-07-17T09:14:46.460Z,51.62
2018-07-17T09:15:46.490Z,51.91
2018-07-17T09:16:46.523Z,54.27
2018-07-17T09:17:46.559Z,51.45
2018-07-17T09:18:46.596Z,52.23
2018-07-17T09:19:46.612Z,53.88
2018-07-17T09:20:46.645Z,53.88
2018-07-17T09:21:46.680Z,51.65
2018-07-17T09:22:46.702Z,53.42
2018-07-17T09:23:46.735Z,52.23
2018-07-17T09:24:46.764Z,52.25
2018-07-17T09:25:46.797Z,53.61
2018-07-17T09:26:46.832Z,53.93
2018-07-17T09:27:46.860Z,53.35
2018-07-17T09:28:46.902Z,53.86
2018-07-17T09:29:46.919Z,52.89
2018-07-17T09:30:46.950Z,51.04
2018-07-17T09:31:46.991Z,52.04
2018-07-17T09:32:47.014Z,50.36
2018-07-17T09:33:47.041Z,48.58
2018-07-17T09:34:47.082Z,49.07
2018-07-17T09:35:47.106Z,49.07
2018-07-17T09:36:47.143Z,49.07
2018-07-17T09:37:47.163Z,49.17
2018-07-17T09:38:47.195Z,50.53
2018-07-17T09:39:47.226Z,50.82
2018-07-17T09:40:47.264Z,50.14
2018-07-17T09:41:47.290Z,48.88
2018-07-17T09:42:47.315Z,49.15
2018-07-17T09:43:47.351Z,49.15
2018-07-17T09:44:47.378Z,49.17
2018-07-17T09:45:47.414Z,50.34
2018-07-17T09:46:47.453Z,50.63
2018-07-17T09:47:47.476Z,50.07
2018-07-17T09:48:47.500Z,51.26
2018-07-17T09:49:47.532Z,51.36
2018-07-17T09:50:47.568Z,50.02
2018-07-17T09:51:47.598Z,50.41
2018-07-17T09:52:47.638Z,47.27
2018-07-17T09:53:47.659Z,47.66
2018-07-17T09:54:47.692Z,50.12
2018-07-17T09:55:47.721Z,50.43
2018-07-17T09:56:47.747Z,49.97
2018-07-17T09:57:47.774Z,48.12
2018-07-17T09:58:47.813Z,46.15
2018-07-17T09:59:47.843Z,46.54
2018-07-17T10:00:47.867Z,46.83
2018-07-17T10:01:48.000Z,48.41
2018-07-17T10:02:47.932Z,47.75
2018-07-17T10:03:47.966Z,47.07
2018-07-17T10:04:48.013Z,44.32
2018-07-17T10:05:48.026Z,44.62
2018-07-17T10:06:48.061Z,45.00
2018-07-17T10:07:48.089Z,45.68
2018-07-17T10:08:48.119Z,46.69
2018-07-17T10:09:48.169Z,44.34
2018-07-17T10:10:49.155Z,43.47
2018-07-17T10:11:48.214Z,42.51
2018-07-17T10:12:48.250Z,42.73
2018-07-17T10:13:48.289Z,42.32
2018-07-17T10:14:48.310Z,42.44
2018-07-17T10:15:48.338Z,45.87
2018-07-17T10:16:48.369Z,45.23
2018-07-17T10:17:48.400Z,45.06
2018-07-17T10:18:48.451Z,44.10
2018-07-17T10:19:48.636Z,42.74
2018-07-17T10:20:48.499Z,42.76
2018-07-17T10:21:48.531Z,42.50
2018-07-17T10:22:48.563Z,41.15
2018-07-17T10:23:48.601Z,41.64
2018-07-17T10:24:48.628Z,41.64
2018-07-17T10:25:48.656Z,41.76
2018-07-17T10:26:48.688Z,40.29
2018-07-17T10:27:48.723Z,39.88
2018-07-17T10:28:48.762Z,39.98
2018-07-17T10:29:48.778Z,39.96
2018-07-17T10:30:48.820Z,40.64
2018-07-17T10:31:48.846Z,41.11
2018-07-17T10:32:48.873Z,39.39
2018-07-17T10:33:48.907Z,39.51
2018-07-17T10:34:48.949Z,37.51
2018-07-17T10:35:48.972Z,37.49
2018-07-17T10:36:49.007Z,37.67
2018-07-17T10:37:49.035Z,37.87
2018-07-17T10:38:49.063Z,40.64
2018-07-17T10:39:49.098Z,40.58
2018-07-17T10:40:49.140Z,38.54
2018-07-17T10:41:49.163Z,38.27
2018-07-17T10:42:49.191Z,37.72
2018-07-17T10:43:49.229Z,37.13
2018-07-17T10:44:49.263Z,36.93
2018-07-17T10:45:49.288Z,37.05
2018-07-17T10:46:49.320Z,34.70
2018-07-17T10:47:49.352Z,34.44
2018-07-17T10:48:49.386Z,33.28
2018-07-17T10:49:49.422Z,33.38
2018-07-17T10:50:49.457Z,33.48
2018-07-17T10:51:49.489Z,33.49
2018-07-17T10:52:49.520Z,31.44
2018-07-17T10:53:49.552Z,32.56
2018-07-17T10:54:49.577Z,31.98
2018-07-17T10:55:49.617Z,30.21
2018-07-17T10:56:49.652Z,29.54
2018-07-17T10:57:49.677Z,29.33
2018-07-17T10:58:49.707Z,28.74
2018-07-17T10:59:49.745Z,28.85
2018-07-17T11:00:49.829Z,28.47
2018-07-17T11:01:49.813Z,28.78
2018-07-17T11:02:49.836Z,28.41
2018-07-17T11:03:49.880Z,26.95
2018-07-17T11:04:49.923Z,26.46
2018-07-17T11:05:49.948Z,24.07
2018-07-17T11:06:49.973Z,25.90
2018-07-17T11:07:50.011Z,25.81
2018-07-17T11:08:50.047Z,26.10
2018-07-17T11:09:50.094Z,24.74
2018-07-17T11:10:50.113Z,24.64
2018-07-17T11:11:50.139Z,25.14
2018-07-17T11:12:50.174Z,24.64
2018-07-17T11:13:50.214Z,25.14
2018-07-17T11:14:50.241Z,24.24
2018-07-17T11:15:50.279Z,23.36
2018-07-17T11:16:50.306Z,22.89
2018-07-17T11:17:50.345Z,23.07
2018-07-17T11:18:50.387Z,23.16
2018-07-17T11:19:50.435Z,22.53
2018-07-17T11:20:50.468Z,23.14
2018-07-17T11:21:50.482Z,23.22
2018-07-17T11:22:50.522Z,21.69
2018-07-17T11:23:50.561Z,22.95
2018-07-17T11:24:50.592Z,24.90
2018-07-17T11:25:50.624Z,24.43
2018-07-17T11:26:50.663Z,23.35
2018-07-17T11:27:50.702Z,23.65
2018-07-17T11:28:50.736Z,22.92
2018-07-17T11:29:50.787Z,22.93
2018-07-17T11:30:50.817Z,25.12
2018-07-17T11:31:50.857Z,28.65
2018-07-17T11:32:50.884Z,27.94
2018-07-17T11:33:50.913Z,29.64
2018-07-17T11:34:50.956Z,33.31
2018-07-17T11:35:50.984Z,33.22
2018-07-17T11:36:51.014Z,33.70
2018-07-17T11:37:51.058Z,34.67
2018-07-17T11:38:51.142Z,34.36
2018-07-17T11:39:51.117Z,34.93
2018-07-17T11:40:51.165Z,35.89
2018-07-17T11:41:51.205Z,35.00
2018-07-17T11:42:51.227Z,36.57
2018-07-17T11:43:51.256Z,36.65
2018-07-17T11:44:51.298Z,36.14
2018-07-17T11:45:51.320Z,37.21
2018-07-17T11:46:51.353Z,38.78
2018-07-17T11:47:51.446Z,39.33
2018-07-17T11:48:51.428Z,38.16
2018-07-17T11:49:51.455Z,37.65
2018-07-17T11:50:51.504Z,38.92
2018-07-17T11:51:51.522Z,37.14
2018-07-17T11:52:51.559Z,39.39
2018-07-17T11:53:51.596Z,38.10
2018-07-17T11:54:51.631Z,39.86
2018-07-17T11:55:51.665Z,38.67
2018-07-17T11:56:51.694Z,40.55
2018-07-17T11:57:51.724Z,40.45
2018-07-17T11:58:51.784Z,40.74
2018-07-17T11:59:51.785Z,40.72
2018-07-17T12:00:51.821Z,39.84
2018-07-17T12:01:51.859Z,39.84
2018-07-17T12:02:51.895Z,41.60
2018-07-17T12:03:51.921Z,41.50
2018-07-17T12:04:51.957Z,41.58
2018-07-17T12:05:52.086Z,41.87
2018-07-17T12:06:52.018Z,41.48
2018-07-17T12:07:52.042Z,39.70
2018-07-17T12:08:52.091Z,39.69
2018-07-17T12:09:52.110Z,39.86
2018-07-17T12:10:52.146Z,40.37
2018-07-17T12:11:52.173Z,40.17
2018-07-17T12:12:52.273Z,41.15
2018-07-17T12:13:52.250Z,40.64
2018-07-17T12:14:52.272Z,40.93
2018-07-17T12:15:52.307Z,42.90
2018-07-17T12:16:52.352Z,42.98
2018-07-17T12:17:52.365Z,42.49
2018-07-17T12:18:52.401Z,41.91
2018-07-17T12:19:52.537Z,42.69
2018-07-17T12:20:52.466Z,40.83
2018-07-17T12:21:52.501Z,44.05
2018-07-17T12:22:52.530Z,43.47
2018-07-17T12:23:52.560Z,40.93
2018-07-17T12:24:52.606Z,41.42
2018-07-17T12:25:52.641Z,40.55
2018-07-17T12:26:52.657Z,40.73
2018-07-17T12:27:52.689Z,40.83
2018-07-17T12:28:52.718Z,40.55
2018-07-17T12:29:52.755Z,40.93
2018-07-17T12:30:52.791Z,41.71
2018-07-17T12:31:52.818Z,40.83
2018-07-17T12:32:52.847Z,40.42
2018-07-17T12:33:52.889Z,40.81
2018-07-17T12:34:52.939Z,41.60
2018-07-17T12:35:52.948Z,43.05
2018-07-17T12:36:52.982Z,42.66
2018-07-17T12:37:53.013Z,42.96
2018-07-17T12:38:53.041Z,41.69
2018-07-17T12:39:53.084Z,42.49
2018-07-17T12:40:53.113Z,42.49
2018-07-17T12:41:53.140Z,41.71
2018-07-17T12:42:53.172Z,43.27
2018-07-17T12:43:53.211Z,42.88
2018-07-17T12:44:53.244Z,43.95
2018-07-17T12:45:53.264Z,42.49
2018-07-17T12:46:53.294Z,40.64
2018-07-17T12:47:53.334Z,41.52
2018-07-17T12:48:53.365Z,41.30
2018-07-17T12:49:53.414Z,41.20
2018-07-17T12:50:53.435Z,41.01
2018-07-17T12:51:53.488Z,42.18
2018-07-17T12:52:53.493Z,43.93